Baden Baden, Illinois
Current Conditions -  °F | °C
As of 7:28 PM on Sunday 23 Nov 2014 (Local Time) from KBLV Reporting Station
Drizzle Drizzle  
Wind Chill: 52°   Ceiling: 300
Heat Index: 52°   Visibility: 2.5mi
Dew Point: 52°   Wind: 5mph
Humidity: 100%   Direction: 160°SSE
Pressure: 29.26"   Gusts: NA
Location:  38.7728°N, 89.5031°W
Report Text: KBLV 240128Z AUTO 16004KT 2 1/2SM R14R/3500FT -DZ BR OVC003 11/11 A2926 RMK AO2 VIS 2 1/2V3 RAB0058E0107DZE0120
Loading
Personal Weather Stations






























Interactive Weather Map New forecast layout! Learn more

10-Day Weather Forecast

Advertisements
Track Severe Weather on mobile